METAR Data
IDs: Format: Raw Decoded Include TAF

Data at: 2156 UTC 18 Sep 2018

KCVW 182135Z AUTO 21005KT 10SM CLR 32/27 A2989 RMK A01
KCVW 182115Z AUTO 22007KT 10SM CLR 31/26 A2989 RMK A01
KCVW 182055Z AUTO 20008KT 10SM CLR 31/27 A2989 RMK A01
KCVW 182035Z AUTO 20008KT 7SM CLR 31/27 A2990 RMK A01
KCVW 182015Z AUTO 20007KT 10SM CLR 31/27 A2991 RMK A01
KCVW 181955Z AUTO 20007KT 10SM CLR 31/27 A2991 RMK A01
KCVW 181935Z AUTO 22008KT 10SM SCT041 31/27 A2991 RMK A01
KCVW 181915Z AUTO 21007KT 10SM SCT042 SCT060 31/27 A2993 RMK A01
KCVW 181855Z AUTO 22008KT 10SM SCT043 BKN060 31/27 A2993 RMK A01
KCVW 181835Z AUTO 20008KT 10SM CLR 32/28 A2994 RMK A01
KCVW 181815Z AUTO 19007KT 10SM FEW110 32/27 A2994 RMK A01
KCVW 181755Z AUTO 20006KT 10SM SCT110 31/27 A2995 RMK A01
KCVW 181735Z AUTO 21005KT 10SM CLR 32/27 A2996 RMK A01
KCVW 181715Z AUTO 18005KT 10SM FEW035 32/27 A2996 RMK A01
KCVW 181655Z AUTO 18007KT 10SM SCT032 32/27 A2997 RMK A01
KCVW 181635Z AUTO 20005KT 10SM SCT032 32/27 A2997 RMK A01
KCVW 181615Z AUTO 00000KT 10SM CLR 32/25 A2998 RMK A01
KCVW 181555Z AUTO 00000KT 10SM CLR 31/26 A2998 RMK A01
KCVW 181535Z AUTO 00000KT 10SM CLR 31/26 A2998 RMK A01
KCVW 181515Z AUTO 00000KT 10SM CLR 30/26 A2998 RMK A01
KCVW 181455Z AUTO VRB04KT 10SM CLR 30/27 A2997 RMK A01
KCVW 181435Z AUTO 34004KT 10SM CLR 30/26 A2997 RMK A01
KCVW 181415Z AUTO VRB04KT 10SM CLR 29/26 A2998 RMK A01
KCVW 181355Z AUTO 35005KT 10SM CLR 29/27 A2997 RMK A01
KCVW 181335Z AUTO 31005KT 10SM CLR 28/27 A2998 RMK A01
KCVW 181315Z AUTO 31003KT 10SM CLR 27/27 A2998 RMK A01
KCVW 181255Z AUTO 00000KT 9SM CLR 27/27 A2997 RMK A01
KCVW 181235Z AUTO 00000KT 7SM CLR 27/26 A2997 RMK A01
KCVW 181215Z AUTO 00000KT 7SM CLR 27/26 A2996 RMK A01
KCVW 181155Z AUTO 29003KT 10SM CLR 26/26 A2996 RMK A01
KCVW 181135Z AUTO 00000KT 8SM CLR 27/26 A2996 RMK A01
KCVW 181115Z AUTO 00000KT 9SM CLR 27/26 A2995 RMK A01
KCVW 181055Z AUTO 30004KT 10SM FEW050 27/26 A2995 RMK A01
KCVW 181035Z AUTO 30004KT 10SM FEW050 27/26 A2994 RMK A01
KCVW 181015Z AUTO 30004KT 10SM FEW049 27/26 A2994 RMK A01
KCVW 180955Z AUTO 30004KT 10SM CLR 27/26 A2994 RMK A01
KCVW 180935Z AUTO 29004KT 10SM FEW049 27/26 A2994 RMK A01
KCVW 180915Z AUTO 29005KT 10SM FEW048 FEW055 27/26 A2993 RMK A01
KCVW 180855Z AUTO 28006KT 10SM CLR 27/26 A2994 RMK A01
KCVW 180835Z AUTO VRB04KT 10SM CLR 27/26 A2994 RMK A01
KCVW 180815Z AUTO 00000KT 10SM FEW050 27/27 A2994 RMK A01
KCVW 180755Z AUTO 28005KT 10SM CLR 27/26 A2994 RMK A01
KCVW 180735Z AUTO 28005KT 10SM CLR 27/27 A2994 RMK A01
KCVW 180715Z AUTO 28006KT 10SM CLR 28/27 A2994 RMK A01
KCVW 180655Z AUTO 27003KT 10SM CLR 28/27 A2995 RMK A01
KCVW 180635Z AUTO 00000KT 10SM CLR 28/27 A2994 RMK A01
KCVW 180615Z AUTO 29005KT 10SM CLR 28/27 A2994 RMK A01
KCVW 180555Z AUTO 28004KT 10SM CLR 28/27 A2995 RMK A01
KCVW 180535Z AUTO 00000KT 10SM CLR 28/27 A2995 RMK A01
KCVW 180515Z AUTO 00000KT 10SM CLR 28/27 A2995 RMK A01
KCVW 180455Z AUTO 26003KT 10SM CLR 28/27 A2994 RMK A01
KCVW 180435Z AUTO 27003KT 10SM FEW055 28/26 A2995 RMK A01
KCVW 180415Z AUTO VRB04KT 10SM SCT055 28/26 A2994 RMK A01
KCVW 180355Z AUTO 26003KT 10SM FEW050 29/26 A2994 RMK A01
KCVW 180335Z AUTO 27003KT 10SM CLR 28/26 A2994 RMK A01
KCVW 180315Z AUTO 27003KT 10SM FEW050 FEW055 28/26 A2993 RMK A01
KCVW 180255Z AUTO 26003KT 10SM FEW050 SCT060 29/27 A2993 RMK A01
KCVW 180235Z AUTO 25003KT 10SM BKN050 29/26 A2993 RMK A01
KCVW 180215Z AUTO 26003KT 10SM SCT050 BKN055 29/27 A2992 RMK A01
KCVW 180155Z AUTO VRB04KT 10SM SCT048 SCT055 29/27 A2992 RMK A01
KCVW 180135Z AUTO 24003KT 10SM SCT049 BKN060 29/27 A2992 RMK A01
KCVW 180115Z AUTO 24005KT 10SM FEW050 SCT055 29/27 A2991 RMK A01
KCVW 180055Z AUTO 24003KT 10SM CLR 29/27 A2990 RMK A01
KCVW 180035Z AUTO VRB04KT 10SM CLR 29/26 A2989 RMK A01
KCVW 180015Z AUTO 23006KT 10SM CLR 30/26 A2989 RMK A01
KCVW 172355Z AUTO 22004G10KT 10SM CLR 30/26 A2989 RMK A01
KCVW 172335Z AUTO 24006KT 10SM CLR 30/26 A2989 RMK A01
KCVW 172315Z AUTO 23006KT 10SM CLR 30/27 A2989 RMK A01
KCVW 172255Z AUTO 23006KT 10SM CLR 31/27 A2989 RMK A01
KCVW 172235Z AUTO 23008KT 10SM CLR 31/26 A2989 RMK A01
KCVW 172215Z AUTO VRB06KT 10SM CLR 31/26 A2989 RMK A01
KCVW 172155Z AUTO 22007G12KT 10SM CLR 31/27 A2989 RMK A01
KCVW 172135Z AUTO VRB06KT 10SM CLR 31/27 A2989 RMK A01
KCVW 172115Z AUTO 22008KT 10SM CLR 31/26 A2990 RMK A01
KCVW 172055Z AUTO 21008KT 10SM CLR 31/26 A2990 RMK A01
KCVW 172035Z AUTO 21008KT 10SM CLR 31/26 A2990 RMK A01
KCVW 172015Z AUTO 22007KT 10SM CLR 31/27 A2991 RMK A01
KCVW 171955Z AUTO 21007KT 10SM CLR 31/27 A2992 RMK A01
KCVW 171935Z AUTO 21009KT 10SM CLR 31/27 A2992 RMK A01
KCVW 171915Z AUTO 21009KT 10SM CLR 31/26 A2993 RMK A01
KCVW 171855Z AUTO 20007KT 10SM CLR 31/26 A2994 RMK A01
KCVW 171835Z AUTO 21008KT 10SM FEW040 31/27 A2994 RMK A01
KCVW 171815Z AUTO 19008KT 10SM SCT036 SCT043 30/26 A2995 RMK A01
KCVW 171755Z AUTO 19007KT 10SM SCT034 32/25 A2996 RMK A01
KCVW 171735Z AUTO 01003KT 10SM SCT034 32/24 A2996 RMK A01
KCVW 171715Z AUTO VRB04KT 10SM CLR 32/24 A2996 RMK A01
KCVW 171655Z AUTO 00000KT 10SM CLR 32/24 A2997 RMK A01
KCVW 171635Z AUTO VRB04KT 10SM CLR 31/24 A2997 RMK A01
KCVW 171615Z AUTO 33004KT 10SM CLR 31/24 A2997 RMK A01
KCVW 171555Z AUTO 35005KT 10SM CLR 30/25 A2997 RMK A01
KCVW 171535Z AUTO 36005KT 10SM CLR 30/25 A2997 RMK A01
KCVW 171515Z AUTO 32005KT 10SM CLR 29/25 A2997 RMK A01
KCVW 171455Z AUTO 34004KT 10SM CLR 29/25 A2997 RMK A01
KCVW 171435Z AUTO 32005KT 10SM CLR 28/26 A2997 RMK A01
KCVW 171415Z AUTO 30004KT 10SM CLR 27/26 A2996 RMK A01
KCVW 171355Z AUTO 31004KT 10SM CLR 27/26 A2996 RMK A01
KCVW 171335Z AUTO 29004KT 10SM CLR 27/26 A2995 RMK A01
KCVW 171315Z AUTO 31003KT 10SM CLR 27/26 A2995 RMK A01
KCVW 171255Z AUTO 00000KT 10SM CLR 26/26 A2994 RMK A01
KCVW 171235Z AUTO 00000KT 10SM CLR 26/25 A2994 RMK A01
KCVW 171215Z AUTO 00000KT 10SM CLR 26/25 A2993 RMK A01
KCVW 171155Z AUTO 00000KT 10SM CLR 25/25 A2992 RMK A01
KCVW 171135Z AUTO 00000KT 10SM CLR 26/25 A2991 RMK A01
KCVW 171115Z AUTO 00000KT 9SM CLR 26/25 A2991 RMK A01
KCVW 171055Z AUTO 00000KT 10SM CLR 26/25 A2991 RMK A01
KCVW 171035Z AUTO 00000KT 10SM CLR 26/25 A2990 RMK A01
KCVW 171015Z AUTO 00000KT 10SM FEW044 26/26 A2990 RMK A01